Time;durP1;ratioP1;P1;durP2;ratioP2;P2;SDS_P1;SDS_P2;PMS_P1;PMS_P2;Temp;Humidity;BMP_temperature;BMP_pressure;BME280_temperature;BME280_humidity;BME280_pressure;Samples;Min_cycle;Max_cycle;Signal;HPM_P1;HPM_P2
2022/04/06 00:00:13;;;;;;;31.77;18.13;;;8.20;99.90;;;;;;5032007;28;20045;-74
2022/04/06 00:02:40;;;;;;;41.40;18.17;;;8.10;99.90;;;;;;5032135;28;20415;-74
2022/04/06 00:05:10;;;;;;;34.83;18.08;;;8.10;99.90;;;;;;5031949;28;20040;-74
2022/04/06 00:07:37;;;;;;;32.45;17.20;;;8.10;99.90;;;;;;5032084;28;20287;-74
2022/04/06 00:10:07;;;;;;;37.97;17.50;;;8.20;99.90;;;;;;5031732;28;20044;-74
2022/04/06 00:12:35;;;;;;;29.55;16.92;;;8.20;99.90;;;;;;5031965;28;20043;-74
2022/04/06 00:15:01;;;;;;;35.83;17.90;;;8.20;99.90;;;;;;5030935;28;20037;-74
2022/04/06 00:17:27;;;;;;;35.97;18.77;;;8.20;99.90;;;;;;5031826;28;20041;-74
2022/04/06 00:19:53;;;;;;;34.95;18.83;;;8.20;99.90;;;;;;5043763;28;20037;-74
2022/04/06 00:22:19;;;;;;;37.10;18.40;;;8.20;99.90;;;;;;5047184;28;20052;-74
2022/04/06 00:24:45;;;;;;;36.25;18.25;;;8.10;99.90;;;;;;5045380;28;20041;-74
2022/04/06 00:27:11;;;;;;;38.13;20.48;;;8.10;99.90;;;;;;5045794;28;20168;-74
2022/04/06 00:29:37;;;;;;;31.55;17.98;;;8.20;99.90;;;;;;5049558;28;20091;-74
2022/04/06 00:32:03;;;;;;;28.90;17.58;;;8.10;99.90;;;;;;5043125;28;20055;-74
2022/04/06 00:37:13;;;;;;;39.63;17.92;;;8.10;99.90;;;;;;5043884;28;20045;-74
2022/04/06 00:39:38;;;;;;;34.63;17.60;;;8.10;99.90;;;;;;5050213;28;20060;-74
2022/04/06 00:42:05;;;;;;;38.22;16.98;;;8.10;99.90;;;;;;5046867;28;20039;-74
2022/04/06 00:44:34;;;;;;;31.70;16.67;;;8.10;99.90;;;;;;5046255;28;20036;-74
2022/04/06 00:47:02;;;;;;;38.92;18.17;;;8.10;99.90;;;;;;5044003;28;20260;-74
2022/04/06 00:49:29;;;;;;;38.30;18.38;;;8.10;99.90;;;;;;5043948;28;20411;-74
2022/04/06 00:51:55;;;;;;;38.08;18.77;;;8.10;99.90;;;;;;5046937;28;20399;-74
2022/04/06 00:54:22;;;;;;;36.63;17.48;;;8.00;99.90;;;;;;5043091;28;20042;-74
2022/04/06 00:56:49;;;;;;;35.00;18.08;;;8.00;99.90;;;;;;5043389;28;20041;-74
2022/04/06 00:59:19;;;;;;;34.38;16.73;;;8.00;99.90;;;;;;5047105;28;20048;-74
2022/04/06 01:01:49;;;;;;;41.92;18.30;;;8.00;99.90;;;;;;5042889;28;20052;-74
2022/04/06 01:04:16;;;;;;;32.50;16.92;;;8.00;99.90;;;;;;5045479;28;20037;-74
2022/04/06 01:06:44;;;;;;;35.28;16.60;;;8.00;99.90;;;;;;5045213;28;20075;-73
2022/04/06 01:09:10;;;;;;;32.20;15.32;;;8.00;99.90;;;;;;5031248;28;20080;-74
2022/04/06 01:11:36;;;;;;;41.08;16.23;;;8.00;99.90;;;;;;5041555;28;20079;-74
2022/04/06 01:14:02;;;;;;;37.08;16.60;;;8.00;99.90;;;;;;5034748;28;20025;-74
2022/04/06 01:16:29;;;;;;;30.98;15.10;;;8.00;99.90;;;;;;5021350;28;20092;-74
2022/04/06 01:18:55;;;;;;;34.55;16.13;;;8.00;99.90;;;;;;5030365;28;20133;-74
2022/04/06 01:21:21;;;;;;;32.30;15.13;;;8.00;99.90;;;;;;5026730;28;20450;-74
2022/04/06 01:23:47;;;;;;;32.58;14.90;;;7.90;99.90;;;;;;5031052;28;20034;-74
2022/04/06 01:26:13;;;;;;;33.40;16.67;;;8.00;99.90;;;;;;5042699;28;20124;-74
2022/04/06 01:28:40;;;;;;;37.03;15.15;;;7.90;99.90;;;;;;5041623;28;20033;-74
2022/04/06 01:31:06;;;;;;;32.13;14.80;;;7.90;99.90;;;;;;5041642;28;20067;-74
2022/04/06 01:33:32;;;;;;;29.98;15.30;;;7.90;99.90;;;;;;5023501;28;20037;-74
2022/04/06 01:35:59;;;;;;;30.38;15.50;;;7.90;99.90;;;;;;5044626;28;20476;-74
2022/04/06 01:38:26;;;;;;;31.85;15.30;;;7.90;99.90;;;;;;5044181;28;20119;-74
2022/04/06 01:40:52;;;;;;;34.22;14.43;;;7.90;99.90;;;;;;5041031;28;20494;-74
2022/04/06 01:43:18;;;;;;;32.47;14.25;;;7.90;99.90;;;;;;5042797;28;20421;-73
2022/04/06 01:45:44;;;;;;;34.05;13.55;;;7.90;99.90;;;;;;5047021;28;20033;-74
2022/04/06 01:48:10;;;;;;;36.88;14.20;;;7.90;99.90;;;;;;5043589;28;20086;-74
2022/04/06 01:53:20;;;;;;;28.05;12.73;;;7.90;99.90;;;;;;5035614;28;20068;-74
2022/04/06 01:55:46;;;;;;;33.28;13.02;;;8.00;99.90;;;;;;5026229;28;20533;-74
2022/04/06 01:58:12;;;;;;;26.77;12.50;;;7.90;99.90;;;;;;5047317;28;20178;-74
2022/04/06 02:00:40;;;;;;;27.75;10.98;;;7.90;99.90;;;;;;5047123;28;20051;-74
2022/04/06 02:03:05;;;;;;;27.98;12.10;;;7.90;99.90;;;;;;5036707;28;20407;-74
2022/04/06 02:05:33;;;;;;;25.02;12.77;;;7.90;99.90;;;;;;5042475;28;20038;-74
2022/04/06 02:08:00;;;;;;;32.92;12.32;;;7.90;99.90;;;;;;5047604;28;20044;-74
2022/04/06 02:10:27;;;;;;;27.35;10.80;;;7.90;99.90;;;;;;5042689;28;20112;-74
2022/04/06 02:12:55;;;;;;;23.98;11.15;;;7.80;99.90;;;;;;5045593;28;20171;-74
2022/04/06 02:15:21;;;;;;;28.25;11.05;;;7.80;99.90;;;;;;5045776;28;20494;-74
2022/04/06 02:17:48;;;;;;;20.85;10.27;;;7.90;99.90;;;;;;5043633;28;20564;-74
2022/04/06 02:20:14;;;;;;;23.60;10.82;;;7.90;99.90;;;;;;5044739;28;20116;-74
2022/04/06 02:22:40;;;;;;;25.23;10.43;;;7.80;99.90;;;;;;5045649;28;20179;-74
2022/04/06 02:25:06;;;;;;;26.95;10.50;;;7.80;99.90;;;;;;5043622;28;20033;-74
2022/04/06 02:27:32;;;;;;;26.08;10.63;;;7.90;99.90;;;;;;5041263;28;20120;-73
2022/04/06 02:29:58;;;;;;;25.60;9.73;;;7.80;99.90;;;;;;5037668;28;20194;-74
2022/04/06 02:32:24;;;;;;;26.70;10.27;;;7.80;99.90;;;;;;5040727;28;20051;-73
2022/04/06 02:34:50;;;;;;;22.02;9.43;;;7.80;99.90;;;;;;5044469;28;20029;-74
2022/04/06 02:37:16;;;;;;;21.73;9.95;;;7.80;99.90;;;;;;5042682;28;20098;-73
2022/04/06 02:39:41;;;;;;;29.08;9.80;;;7.90;99.90;;;;;;5043659;28;20045;-74
2022/04/06 02:42:07;;;;;;;20.10;9.98;;;7.80;99.90;;;;;;5046993;28;20029;-73
2022/04/06 02:44:33;;;;;;;24.98;8.70;;;7.80;99.90;;;;;;5028879;28;20409;-74
2022/04/06 02:46:59;;;;;;;20.42;8.57;;;7.80;99.90;;;;;;5029732;28;20041;-74
2022/04/06 02:49:25;;;;;;;19.42;7.65;;;7.80;99.90;;;;;;5033693;28;20141;-73
2022/04/06 02:51:51;;;;;;;20.67;8.82;;;7.80;99.90;;;;;;5039029;28;20084;-73
2022/04/06 02:54:17;;;;;;;30.45;9.25;;;7.80;99.90;;;;;;5068372;28;20076;-73
2022/04/06 02:56:43;;;;;;;19.33;7.97;;;7.80;99.90;;;;;;5042532;28;20025;-74
2022/04/06 02:59:09;;;;;;;20.02;8.52;;;7.80;99.90;;;;;;5044656;28;20045;-73
2022/04/06 03:01:35;;;;;;;26.98;9.63;;;7.80;99.90;;;;;;5044221;28;20445;-73
2022/04/06 03:04:00;;;;;;;23.00;8.95;;;7.80;99.90;;;;;;5043329;28;20041;-73
2022/04/06 03:06:26;;;;;;;24.30;8.43;;;7.80;99.90;;;;;;5046919;28;20032;-73
2022/04/06 03:08:52;;;;;;;19.77;8.23;;;7.80;99.90;;;;;;5042938;28;20045;-73
2022/04/06 03:11:18;;;;;;;24.70;8.40;;;7.90;99.90;;;;;;5045410;28;20104;-73
2022/04/06 03:13:43;;;;;;;23.42;8.45;;;7.80;99.90;;;;;;5048618;28;20124;-74
2022/04/06 03:16:09;;;;;;;22.45;8.82;;;7.80;99.90;;;;;;5048242;28;20037;-73
2022/04/06 03:18:35;;;;;;;26.27;9.40;;;7.80;99.90;;;;;;5026133;28;20047;-73
2022/04/06 03:21:01;;;;;;;21.75;8.00;;;7.80;99.90;;;;;;5044455;28;20036;-73
2022/04/06 03:23:27;;;;;;;26.02;9.55;;;7.90;99.90;;;;;;5049976;28;20051;-73
2022/04/06 03:25:53;;;;;;;26.88;9.65;;;7.80;99.90;;;;;;5048569;28;20501;-73
2022/04/06 03:28:19;;;;;;;26.90;9.98;;;7.80;99.90;;;;;;5046601;28;20029;-73
2022/04/06 03:30:45;;;;;;;22.45;9.18;;;7.90;99.90;;;;;;5052503;28;20041;-73
2022/04/06 03:33:13;;;;;;;26.83;10.35;;;7.90;99.90;;;;;;5043951;28;20064;-74
2022/04/06 03:35:39;;;;;;;25.67;10.30;;;7.90;99.90;;;;;;5049408;28;20044;-74
2022/04/06 03:38:05;;;;;;;25.38;11.32;;;7.90;99.90;;;;;;5045401;28;20071;-74
2022/04/06 03:40:31;;;;;;;26.02;11.73;;;7.90;99.90;;;;;;5048660;28;20037;-74
2022/04/06 03:42:57;;;;;;;31.60;12.20;;;7.90;99.90;;;;;;5048620;28;20041;-73
2022/04/06 03:45:23;;;;;;;31.85;11.38;;;7.80;99.90;;;;;;5045901;28;20132;-74
2022/04/06 03:47:49;;;;;;;34.40;13.05;;;8.00;99.90;;;;;;5032609;28;20613;-73
2022/04/06 03:50:15;;;;;;;35.25;13.68;;;8.00;99.90;;;;;;5017757;28;20116;-73
2022/04/06 03:52:41;;;;;;;31.00;12.85;;;8.00;99.90;;;;;;5044379;28;20060;-73
2022/04/06 03:55:08;;;;;;;26.00;12.60;;;8.00;99.90;;;;;;5045393;28;20041;-73
2022/04/06 03:57:35;;;;;;;31.77;13.45;;;8.00;99.90;;;;;;5045264;28;20033;-73
2022/04/06 04:00:04;;;;;;;36.70;13.60;;;8.00;99.90;;;;;;5043479;28;20032;-73
2022/04/06 04:02:31;;;;;;;33.30;13.25;;;8.10;99.90;;;;;;5046434;28;20044;-73
2022/04/06 04:04:57;;;;;;;34.45;14.27;;;8.10;99.90;;;;;;5046880;28;20175;-73
2022/04/06 04:07:23;;;;;;;30.55;12.90;;;8.10;99.90;;;;;;5042212;28;20213;-73
2022/04/06 04:09:50;;;;;;;29.58;13.95;;;8.10;99.90;;;;;;5047189;28;20080;-73
2022/04/06 04:12:16;;;;;;;28.58;12.63;;;8.10;99.90;;;;;;5045387;28;20045;-73
2022/04/06 04:14:42;;;;;;;33.20;14.20;;;8.10;99.90;;;;;;5044668;28;20394;-73
2022/04/06 04:17:07;;;;;;;33.13;13.18;;;8.10;99.90;;;;;;5044622;28;21279;-73
2022/04/06 04:19:33;;;;;;;28.08;12.95;;;8.10;99.90;;;;;;5041274;28;20049;-73
2022/04/06 04:21:59;;;;;;;28.63;13.02;;;8.10;99.90;;;;;;5049679;28;20456;-73
2022/04/06 04:24:25;;;;;;;33.53;13.68;;;8.10;99.90;;;;;;5047075;28;20037;-73
2022/04/06 04:26:50;;;;;;;26.38;13.93;;;8.00;99.90;;;;;;5044348;28;20040;-73
2022/04/06 04:29:17;;;;;;;29.60;13.57;;;8.00;99.90;;;;;;5043607;28;20052;-73
2022/04/06 04:31:44;;;;;;;35.00;13.20;;;8.00;99.90;;;;;;5025991;28;20059;-73
2022/04/06 04:34:10;;;;;;;29.13;12.10;;;8.00;99.90;;;;;;5047126;28;20037;-73
2022/04/06 04:36:36;;;;;;;26.35;12.20;;;8.00;99.90;;;;;;5043442;28;20406;-73
2022/04/06 04:39:02;;;;;;;24.98;10.82;;;8.00;99.90;;;;;;5048104;28;20056;-73
2022/04/06 04:41:28;;;;;;;28.45;11.85;;;8.00;99.90;;;;;;5035213;28;20041;-73
2022/04/06 04:43:54;;;;;;;25.58;11.30;;;8.00;99.90;;;;;;5047977;28;20033;-73
2022/04/06 04:46:21;;;;;;;26.33;11.52;;;8.00;99.90;;;;;;5046088;28;20170;-73
2022/04/06 04:48:47;;;;;;;23.83;11.40;;;8.00;99.90;;;;;;5041396;28;20046;-73
2022/04/06 04:51:13;;;;;;;28.02;11.98;;;8.00;99.90;;;;;;5028340;28;20053;-73
2022/04/06 04:53:39;;;;;;;28.92;11.57;;;8.00;99.90;;;;;;5044070;28;20094;-73
2022/04/06 04:56:05;;;;;;;26.63;12.15;;;8.00;99.90;;;;;;5045588;28;20041;-73
2022/04/06 04:58:31;;;;;;;25.50;11.18;;;7.90;99.90;;;;;;5040553;28;20029;-73
2022/04/06 05:00:56;;;;;;;21.27;10.68;;;8.00;99.90;;;;;;5046575;28;20044;-73
2022/04/06 05:03:22;;;;;;;20.42;10.10;;;7.90;99.90;;;;;;5044917;28;20437;-73
2022/04/06 05:05:51;;;;;;;21.33;9.40;;;7.90;99.90;;;;;;5044882;28;20040;-73
2022/04/06 05:08:17;;;;;;;21.63;10.18;;;7.90;99.90;;;;;;5046805;28;20468;-73
2022/04/06 05:10:44;;;;;;;26.88;10.55;;;7.90;99.90;;;;;;5031166;28;20041;-73
2022/04/06 05:13:10;;;;;;;26.50;10.05;;;7.90;99.90;;;;;;5030271;28;20045;-73
2022/04/06 05:15:36;;;;;;;20.77;9.98;;;7.90;99.90;;;;;;5030649;28;20040;-73
2022/04/06 05:18:01;;;;;;;20.15;9.88;;;7.90;99.90;;;;;;5029670;28;20041;-73
2022/04/06 05:20:27;;;;;;;21.38;10.13;;;7.90;99.90;;;;;;5030227;28;20541;-73
2022/04/06 05:22:53;;;;;;;22.33;9.50;;;7.90;99.90;;;;;;5030206;28;20033;-73
2022/04/06 05:25:20;;;;;;;24.38;10.05;;;7.90;99.90;;;;;;5030665;28;20099;-73
2022/04/06 05:27:50;;;;;;;22.58;9.43;;;7.90;99.90;;;;;;5029002;28;20037;-73
2022/04/06 05:30:18;;;;;;;26.77;10.30;;;8.00;99.90;;;;;;5030596;28;20083;-73
2022/04/06 05:32:45;;;;;;;21.92;9.10;;;7.90;99.90;;;;;;5030101;28;20084;-72
2022/04/06 05:35:12;;;;;;;24.58;9.63;;;7.90;99.90;;;;;;5030744;28;20391;-73
2022/04/06 05:37:39;;;;;;;23.27;9.07;;;7.90;99.90;;;;;;5028521;28;20071;-73
2022/04/06 05:40:06;;;;;;;19.48;9.35;;;7.90;99.90;;;;;;5030539;28;20518;-73
2022/04/06 05:42:32;;;;;;;24.23;9.15;;;7.90;99.90;;;;;;5031171;28;20037;-73
2022/04/06 05:44:58;;;;;;;18.98;8.25;;;7.90;99.90;;;;;;5029835;28;20037;-73
2022/04/06 05:47:25;;;;;;;18.67;8.48;;;7.90;99.90;;;;;;5029363;28;20044;-73
2022/04/06 05:49:51;;;;;;;19.17;8.15;;;7.90;99.90;;;;;;5030285;28;20494;-73
2022/04/06 05:52:17;;;;;;;21.80;7.95;;;7.90;99.90;;;;;;5030158;28;20049;-73
2022/04/06 05:54:43;;;;;;;19.63;8.13;;;8.00;99.90;;;;;;5030178;28;20048;-73
2022/04/06 05:57:09;;;;;;;19.58;7.28;;;7.90;99.90;;;;;;5030224;28;20495;-73
2022/04/06 05:59:36;;;;;;;18.00;7.63;;;7.90;99.90;;;;;;5029843;28;20037;-73
2022/04/06 06:02:06;;;;;;;16.27;7.38;;;8.00;99.90;;;;;;5034486;28;20029;-73
2022/04/06 06:04:33;;;;;;;12.82;6.30;;;8.00;99.90;;;;;;5028591;28;20116;-73
2022/04/06 06:06:59;;;;;;;18.45;6.30;;;8.10;99.90;;;;;;5044574;28;20055;-73
2022/04/06 06:09:25;;;;;;;16.67;6.90;;;8.10;99.90;;;;;;5041949;28;20049;-73
2022/04/06 06:11:51;;;;;;;13.48;6.40;;;8.00;99.90;;;;;;5046791;28;20481;-73
2022/04/06 06:14:16;;;;;;;12.63;5.22;;;8.00;99.90;;;;;;5045950;28;20072;-73
2022/04/06 06:16:44;;;;;;;15.60;6.15;;;8.10;99.90;;;;;;5031561;28;20048;-73
2022/04/06 06:19:11;;;;;;;8.80;4.60;;;8.10;99.90;;;;;;5039662;28;20073;-73
2022/04/06 06:21:37;;;;;;;14.57;5.72;;;8.10;99.90;;;;;;5031001;28;20037;-72
2022/04/06 06:24:05;;;;;;;14.55;4.88;;;8.10;99.90;;;;;;5044470;28;20127;-72
2022/04/06 06:26:32;;;;;;;9.27;4.95;;;8.10;99.90;;;;;;5042965;28;20505;-72
2022/04/06 06:28:58;;;;;;;14.18;4.40;;;8.10;99.90;;;;;;5035617;28;20448;-73
2022/04/06 06:31:23;;;;;;;10.60;5.00;;;8.10;99.90;;;;;;5012490;28;20076;-73
2022/04/06 06:33:49;;;;;;;13.30;4.15;;;8.10;99.90;;;;;;5028424;28;20095;-73
2022/04/06 06:36:15;;;;;;;9.88;4.75;;;8.10;99.90;;;;;;5043618;28;20041;-73
2022/04/06 06:38:41;;;;;;;10.93;4.40;;;8.10;99.90;;;;;;5027866;28;20077;-73
2022/04/06 06:41:07;;;;;;;13.27;5.03;;;8.10;99.90;;;;;;5029672;28;20658;-73
2022/04/06 06:43:33;;;;;;;11.38;3.92;;;8.10;99.90;;;;;;5028572;28;20042;-73
2022/04/06 06:45:58;;;;;;;17.40;4.50;;;8.10;99.90;;;;;;5029529;28;20037;-73
2022/04/06 06:48:24;;;;;;;16.95;3.85;;;8.10;99.90;;;;;;5029329;28;20112;-72
2022/04/06 06:50:50;;;;;;;10.35;3.45;;;8.10;99.90;;;;;;5029830;28;20421;-73
2022/04/06 06:53:16;;;;;;;12.35;3.78;;;8.10;99.90;;;;;;5028848;28;20698;-73
2022/04/06 06:55:41;;;;;;;11.98;3.53;;;8.10;99.90;;;;;;5029518;28;20102;-72
2022/04/06 06:58:07;;;;;;;10.82;3.80;;;8.10;99.90;;;;;;5029272;28;20125;-72
2022/04/06 07:00:33;;;;;;;10.32;3.22;;;8.10;99.90;;;;;;4995190;28;20120;-72
2022/04/06 07:02:59;;;;;;;11.95;4.32;;;8.00;99.90;;;;;;5028951;28;20046;-72
2022/04/06 07:05:24;;;;;;;13.52;3.33;;;8.00;99.90;;;;;;5029391;28;20068;-72
2022/04/06 07:07:56;;;;;;;11.18;3.40;;;8.10;99.90;;;;;;5011603;28;20514;-72
2022/04/06 07:10:23;;;;;;;9.00;3.38;;;8.00;99.90;;;;;;5029550;28;20038;-72
2022/04/06 07:12:50;;;;;;;11.23;3.67;;;8.00;99.90;;;;;;5019671;28;20169;-72
2022/04/06 07:15:15;;;;;;;8.50;3.35;;;8.00;99.90;;;;;;5025417;28;20042;-72
2022/04/06 07:17:41;;;;;;;12.75;3.35;;;8.00;99.90;;;;;;5027575;28;20041;-72
2022/04/06 07:20:08;;;;;;;9.93;3.42;;;8.00;99.90;;;;;;5028216;28;20037;-72
2022/04/06 07:22:35;;;;;;;12.52;3.33;;;8.10;99.90;;;;;;5029096;28;20106;-72
2022/04/06 07:25:01;;;;;;;11.35;3.72;;;8.10;99.90;;;;;;5028221;28;20064;-72
2022/04/06 07:27:32;;;;;;;11.73;3.90;;;8.10;99.90;;;;;;5027821;28;20049;-72
2022/04/06 07:29:58;;;;;;;12.60;4.03;;;8.10;99.90;;;;;;5029482;28;20053;-72
2022/04/06 07:32:23;;;;;;;7.25;3.30;;;8.10;99.90;;;;;;5011897;28;20041;-72
2022/04/06 07:34:49;;;;;;;10.48;3.20;;;8.10;99.90;;;;;;5008265;28;20038;-73
2022/04/06 07:37:15;;;;;;;12.82;4.13;;;8.10;99.90;;;;;;5028037;28;20045;-72
2022/04/06 07:39:41;;;;;;;9.88;3.95;;;8.10;99.90;;;;;;5028936;28;20124;-73
2022/04/06 07:42:07;;;;;;;9.65;3.35;;;8.10;99.90;;;;;;5029370;28;20045;-73
2022/04/06 07:44:32;;;;;;;8.50;3.75;;;8.20;99.90;;;;;;5028892;28;20103;-72
2022/04/06 07:47:00;;;;;;;9.70;4.30;;;8.20;99.90;;;;;;5027661;28;20041;-72
2022/04/06 07:49:26;;;;;;;9.70;4.20;;;8.20;99.90;;;;;;5028645;28;20049;-72
2022/04/06 07:51:52;;;;;;;10.48;4.53;;;8.20;99.90;;;;;;5031677;28;20056;-72
2022/04/06 07:54:18;;;;;;;12.15;5.55;;;8.20;99.90;;;;;;5032817;28;20120;-72
2022/04/06 07:56:43;;;;;;;11.25;4.53;;;8.20;99.90;;;;;;5032074;28;20033;-73
2022/04/06 07:59:09;;;;;;;16.60;5.25;;;8.20;99.90;;;;;;5023809;28;20042;-72
2022/04/06 08:01:35;;;;;;;9.30;5.60;;;8.10;99.90;;;;;;5031728;28;20528;-72
2022/04/06 08:04:00;;;;;;;13.68;5.78;;;8.20;99.90;;;;;;5014579;28;20044;-72
2022/04/06 08:06:26;;;;;;;12.18;5.38;;;8.20;99.90;;;;;;5032437;28;20041;-73
2022/04/06 08:08:53;;;;;;;12.18;5.85;;;8.10;99.90;;;;;;5032673;28;20116;-72
2022/04/06 08:11:22;;;;;;;12.02;5.85;;;8.20;99.90;;;;;;5032054;28;20045;-72
2022/04/06 08:13:48;;;;;;;15.07;5.85;;;8.20;99.90;;;;;;5022567;28;20441;-72
2022/04/06 08:16:14;;;;;;;12.00;6.30;;;8.20;99.90;;;;;;5030643;28;20411;-72
2022/04/06 08:18:40;;;;;;;14.48;6.32;;;8.20;99.90;;;;;;5032434;28;20061;-72
2022/04/06 08:21:06;;;;;;;13.77;6.43;;;8.30;99.90;;;;;;5032227;28;20080;-72
2022/04/06 08:23:32;;;;;;;15.13;6.80;;;8.40;99.90;;;;;;5032462;28;20073;-73
2022/04/06 08:25:58;;;;;;;19.02;7.60;;;8.40;99.90;;;;;;5030962;28;20364;-73
2022/04/06 08:28:24;;;;;;;17.70;8.23;;;8.40;99.90;;;;;;5033179;28;20048;-72
2022/04/06 08:30:50;;;;;;;15.10;7.57;;;8.40;99.90;;;;;;5033131;28;20494;-73
2022/04/06 08:33:16;;;;;;;16.23;8.40;;;8.40;99.90;;;;;;5032457;28;20029;-72
2022/04/06 08:35:42;;;;;;;17.02;7.70;;;8.40;99.90;;;;;;5032161;28;20080;-72
2022/04/06 08:38:14;;;;;;;17.52;7.95;;;8.40;99.90;;;;;;5030695;28;20045;-72
2022/04/06 08:40:42;;;;;;;17.67;7.90;;;8.40;99.90;;;;;;5031831;28;20121;-72
2022/04/06 08:43:09;;;;;;;21.00;8.68;;;8.50;99.90;;;;;;5031793;28;20044;-72
2022/04/06 08:45:37;;;;;;;19.70;9.13;;;8.50;99.90;;;;;;5029041;28;20041;-72
2022/04/06 08:48:10;;;;;;;15.93;8.02;;;8.50;99.90;;;;;;5029352;28;20119;-72
2022/04/06 08:50:38;;;;;;;22.80;8.07;;;8.50;99.90;;;;;;5029343;28;20044;-72
2022/04/06 08:53:07;;;;;;;15.15;7.90;;;8.70;99.90;;;;;;5011614;28;20076;-72
2022/04/06 08:55:33;;;;;;;23.73;8.32;;;8.80;99.90;;;;;;5010625;28;20041;-72
2022/04/06 08:58:00;;;;;;;14.13;8.07;;;8.90;99.90;;;;;;5010518;28;20060;-73
2022/04/06 09:00:26;;;;;;;22.17;8.52;;;8.90;99.90;;;;;;4995632;28;20041;-72
2022/04/06 09:02:53;;;;;;;13.18;7.32;;;8.80;99.90;;;;;;5011100;28;20042;-72
2022/04/06 09:05:28;;;;;;;14.15;7.78;;;8.80;99.90;;;;;;5010966;28;20164;-72
2022/04/06 09:07:54;;;;;;;13.88;7.80;;;8.80;99.90;;;;;;5035893;28;20041;-72
2022/04/06 09:10:38;;;;;;;17.20;6.75;;;8.70;99.90;;;;;;4994029;28;20138;-72
2022/04/06 09:13:07;;;;;;;12.63;6.88;;;8.70;99.90;;;;;;5027232;28;20124;-72
2022/04/06 09:15:33;;;;;;;13.82;7.45;;;8.80;99.90;;;;;;5027163;28;20760;-72
2022/04/06 09:18:01;;;;;;;16.27;6.63;;;8.80;99.90;;;;;;5010503;28;20044;-72
2022/04/06 09:20:27;;;;;;;13.75;7.05;;;8.80;99.90;;;;;;5009711;28;20041;-72
2022/04/06 09:22:53;;;;;;;13.90;6.93;;;8.80;99.90;;;;;;5028055;28;20095;-72
2022/04/06 09:25:20;;;;;;;13.38;6.45;;;8.70;99.90;;;;;;5010151;28;20053;-72
2022/04/06 09:27:46;;;;;;;14.10;6.03;;;8.70;99.90;;;;;;5025925;28;20507;-72
2022/04/06 09:30:12;;;;;;;12.13;6.38;;;8.60;99.90;;;;;;5028426;28;20121;-72
2022/04/06 09:32:41;;;;;;;15.55;6.38;;;8.60;99.90;;;;;;5026023;28;20038;-72
2022/04/06 09:35:37;;;;;;;17.75;6.97;;;8.60;99.90;;;;;;5010938;28;20068;-72
2022/04/06 09:38:14;;;;;;;17.55;7.60;;;8.60;99.90;;;;;;5012443;28;20076;-72
2022/04/06 09:40:42;;;;;;;11.45;6.05;;;8.60;99.90;;;;;;5028657;28;20037;-72
2022/04/06 09:43:22;;;;;;;11.50;5.20;;;8.70;99.90;;;;;;5025890;28;20052;-72
2022/04/06 09:48:32;;;;;;;8.93;4.88;;;8.90;99.90;;;;;;5026534;28;20076;-72
2022/04/06 09:50:58;;;;;;;10.05;4.40;;;9.00;99.90;;;;;;5010213;28;20510;-72
2022/04/06 09:53:27;;;;;;;8.05;5.10;;;9.00;99.90;;;;;;5012290;28;20060;-72
2022/04/06 09:55:55;;;;;;;17.98;4.93;;;9.00;99.90;;;;;;4980754;28;20132;-72
2022/04/06 09:58:22;;;;;;;7.65;4.10;;;9.00;99.90;;;;;;5014637;28;20045;-72
2022/04/06 10:00:50;;;;;;;11.40;4.05;;;8.80;99.90;;;;;;4997140;28;20045;-72
2022/04/06 10:03:18;;;;;;;8.38;4.55;;;9.00;99.90;;;;;;5013636;28;20522;-72
2022/04/06 10:05:46;;;;;;;5.40;3.63;;;9.00;99.90;;;;;;5013837;28;20516;-72
2022/04/06 10:08:12;;;;;;;9.00;4.32;;;9.00;99.90;;;;;;5013046;28;20045;-72
2022/04/06 10:10:41;;;;;;;12.15;5.18;;;9.00;99.90;;;;;;5012289;28;20090;-72
2022/04/06 10:13:07;;;;;;;8.18;4.72;;;9.00;99.90;;;;;;5013529;28;20037;-72
2022/04/06 10:15:35;;;;;;;9.98;4.80;;;9.00;99.90;;;;;;5013469;28;20041;-72
2022/04/06 10:18:05;;;;;;;9.63;5.25;;;9.00;99.90;;;;;;4995527;28;20548;-72
2022/04/06 10:20:53;;;;;;;11.85;5.07;;;9.00;99.90;;;;;;5014490;28;20091;-72
2022/04/06 10:23:53;;;;;;;10.73;5.40;;;9.00;99.90;;;;;;5014609;28;20049;-72
2022/04/06 10:26:37;;;;;;;10.15;4.90;;;9.00;99.90;;;;;;5012694;28;20042;-72
2022/04/06 10:29:05;;;;;;;12.45;5.72;;;9.10;99.90;;;;;;5016764;28;20040;-72
2022/04/06 10:31:31;;;;;;;7.35;5.00;;;9.10;99.90;;;;;;5015597;28;20339;-72
2022/04/06 10:34:19;;;;;;;14.63;5.63;;;9.20;99.90;;;;;;5013449;28;20109;-72
2022/04/06 10:37:01;;;;;;;9.63;5.43;;;9.20;99.90;;;;;;5015536;28;20052;-72
2022/04/06 10:39:27;;;;;;;9.30;5.90;;;9.20;99.90;;;;;;5014729;28;20121;-72
2022/04/06 10:42:36;;;;;;;11.45;5.18;;;9.20;99.90;;;;;;5015400;28;20798;-73
2022/04/06 10:45:05;;;;;;;13.40;5.43;;;9.20;99.90;;;;;;5008615;28;20128;-72
2022/04/06 10:47:32;;;;;;;11.65;5.60;;;9.30;99.90;;;;;;5013182;28;20048;-72
2022/04/06 10:50:15;;;;;;;10.68;5.55;;;9.30;99.90;;;;;;5011900;28;20125;-72
2022/04/06 10:52:43;;;;;;;12.93;5.97;;;9.30;99.90;;;;;;4995167;28;20065;-72
2022/04/06 10:55:21;;;;;;;11.38;5.40;;;9.30;99.90;;;;;;5012432;28;20138;-72
2022/04/06 10:58:01;;;;;;;11.82;5.55;;;9.30;99.90;;;;;;5013594;28;20690;-72
2022/04/06 11:00:27;;;;;;;12.68;5.72;;;9.30;99.90;;;;;;4995616;28;20036;-72
2022/04/06 11:02:54;;;;;;;9.07;5.63;;;9.30;99.90;;;;;;4996308;28;21365;-72
2022/04/06 11:05:46;;;;;;;8.02;4.93;;;9.30;99.90;;;;;;5012551;28;20505;-72
2022/04/06 11:11:47;;;;;;;11.10;6.40;;;9.30;99.90;;;;;;5012009;28;20304;-72
2022/04/06 11:14:28;;;;;;;13.07;6.80;;;9.20;99.90;;;;;;5013532;28;20045;-72
2022/04/06 11:16:54;;;;;;;11.90;6.65;;;9.10;99.90;;;;;;5012462;28;20503;-72
2022/04/06 11:19:20;;;;;;;11.40;6.85;;;9.20;99.90;;;;;;4996524;28;20051;-72
2022/04/06 11:21:53;;;;;;;13.00;7.07;;;9.10;99.90;;;;;;5014121;28;20069;-72
2022/04/06 11:24:24;;;;;;;10.10;6.93;;;9.10;99.90;;;;;;5010181;28;20082;-72
2022/04/06 11:26:51;;;;;;;16.73;7.32;;;9.10;99.90;;;;;;5021195;28;20465;-72
2022/04/06 11:29:17;;;;;;;15.48;7.32;;;9.10;99.90;;;;;;5020610;28;20049;-72
2022/04/06 11:32:13;;;;;;;10.07;6.53;;;9.10;99.90;;;;;;5018648;28;20041;-72
2022/04/06 11:34:40;;;;;;;12.88;7.63;;;9.10;99.90;;;;;;5008710;28;20049;-72
2022/04/06 11:37:08;;;;;;;11.63;7.95;;;9.10;99.90;;;;;;5023150;28;20514;-72
2022/04/06 11:39:34;;;;;;;15.75;7.93;;;9.10;99.90;;;;;;5020001;28;20045;-72
2022/04/06 11:42:02;;;;;;;17.77;7.97;;;9.10;99.90;;;;;;5019909;28;20049;-71
2022/04/06 11:44:28;;;;;;;11.73;7.88;;;9.00;99.90;;;;;;5021681;28;21453;-71
2022/04/06 11:46:55;;;;;;;8.45;5.93;;;9.00;99.90;;;;;;5022128;28;20071;-72
2022/04/06 11:49:30;;;;;;;15.48;7.50;;;8.90;99.90;;;;;;5023292;28;20718;-72
2022/04/06 11:51:58;;;;;;;16.25;8.50;;;8.90;99.90;;;;;;5019108;28;20719;-71
2022/04/06 11:54:24;;;;;;;13.75;7.53;;;9.00;99.90;;;;;;5021462;28;20045;-71
2022/04/06 11:56:51;;;;;;;13.63;7.00;;;9.00;99.90;;;;;;5022067;28;20784;-71
2022/04/06 11:59:19;;;;;;;13.30;7.70;;;9.10;99.90;;;;;;5052712;28;20046;-71
2022/04/06 12:01:46;;;;;;;13.95;7.43;;;9.10;99.90;;;;;;5020330;28;20050;-71
2022/04/06 12:04:21;;;;;;;15.77;7.88;;;9.20;99.90;;;;;;5020047;28;20093;-71
2022/04/06 12:06:47;;;;;;;12.18;6.75;;;9.30;99.90;;;;;;5021966;28;20499;-72
2022/04/06 12:09:13;;;;;;;12.55;6.65;;;9.40;99.90;;;;;;5021363;28;20045;-72
2022/04/06 12:11:39;;;;;;;15.68;8.02;;;9.50;99.90;;;;;;5002922;28;20045;-71
2022/04/06 12:14:10;;;;;;;11.48;6.57;;;9.50;99.90;;;;;;5026673;28;20038;-71
2022/04/06 12:16:40;;;;;;;12.00;7.35;;;9.50;99.90;;;;;;5040786;28;20100;-72
2022/04/06 12:19:13;;;;;;;12.25;6.97;;;9.50;99.90;;;;;;5045247;28;20046;-72
2022/04/06 12:21:44;;;;;;;7.82;6.13;;;9.60;99.90;;;;;;5003289;28;20045;-72
2022/04/06 12:24:11;;;;;;;12.60;6.30;;;9.60;99.90;;;;;;5008205;28;20042;-71
2022/04/06 12:26:56;;;;;;;8.88;6.80;;;9.70;99.90;;;;;;5002450;28;20041;-71
2022/04/06 12:29:22;;;;;;;11.43;7.93;;;9.70;99.90;;;;;;4983995;28;20337;-72
2022/04/06 12:31:48;;;;;;;12.07;7.43;;;9.90;99.90;;;;;;4999427;28;20056;-72
2022/04/06 12:34:35;;;;;;;12.10;7.47;;;9.90;99.90;;;;;;4983547;28;20065;-72
2022/04/06 12:37:29;;;;;;;11.45;7.68;;;9.80;99.90;;;;;;5021645;28;20458;-71
2022/04/06 12:39:51;;;;;;;15.18;8.00;;;9.90;99.90;;;;;;5014571;28;20084;-72
2022/04/06 12:42:16;;;;;;;10.95;6.90;;;9.90;99.90;;;;;;5016159;28;20037;-71
2022/04/06 12:45:02;;;;;;;13.13;7.45;;;9.80;99.90;;;;;;5016265;28;20037;-71
2022/04/06 12:47:28;;;;;;;12.73;7.55;;;9.80;99.90;;;;;;5017422;28;20041;-72
2022/04/06 12:50:15;;;;;;;9.43;7.43;;;9.80;99.90;;;;;;5016439;28;20045;-72
2022/04/06 12:52:41;;;;;;;10.25;7.20;;;9.80;99.90;;;;;;5027474;28;20057;-72
2022/04/06 12:55:10;;;;;;;10.48;7.50;;;9.70;99.90;;;;;;5017773;28;20052;-72
2022/04/06 12:57:37;;;;;;;10.93;7.43;;;9.80;99.90;;;;;;5021241;28;20057;-72
2022/04/06 13:00:09;;;;;;;9.55;7.20;;;9.80;99.90;;;;;;5019905;28;20133;-72